Time;durP1;ratioP1;P1;durP2;ratioP2;P2;SDS_P1;SDS_P2;PMS_P1;PMS_P2;Temp;Humidity;BMP_temperature;BMP_pressure;BME280_temperature;BME280_humidity;BME280_pressure;Samples;Min_cycle;Max_cycle;Signal;HPM_P1;HPM_P2
2022/11/16 00:02:08;;;;;;;11.30;7.68;;;11.10;99.90;;;;;;5052205;28;20247;-87
2022/11/16 00:04:34;;;;;;;9.83;8.80;;;11.10;99.90;;;;;;5058573;28;20181;-87
2022/11/16 00:07:01;;;;;;;6.90;6.17;;;11.10;99.90;;;;;;5053504;28;20411;-88
2022/11/16 00:09:31;;;;;;;11.60;7.90;;;11.10;99.90;;;;;;5051615;28;20240;-87
2022/11/16 00:11:59;;;;;;;13.93;8.75;;;11.10;99.90;;;;;;5052006;28;20830;-87
2022/11/16 00:14:27;;;;;;;9.90;7.97;;;11.10;99.90;;;;;;5051990;28;20714;-87
2022/11/16 00:16:54;;;;;;;9.27;7.10;;;11.10;99.90;;;;;;5051872;28;20419;-88
2022/11/16 00:19:19;;;;;;;8.90;7.40;;;11.10;99.90;;;;;;5053001;28;20758;-88
2022/11/16 00:21:45;;;;;;;9.57;7.60;;;11.10;99.90;;;;;;5051567;28;20186;-87
2022/11/16 00:24:12;;;;;;;8.77;7.00;;;11.10;99.90;;;;;;5053107;28;20177;-87
2022/11/16 00:26:38;;;;;;;10.60;7.38;;;11.10;99.90;;;;;;5051831;28;20438;-87
2022/11/16 00:29:04;;;;;;;9.03;6.80;;;11.10;99.90;;;;;;5068579;28;20268;-88
2022/11/16 00:31:29;;;;;;;11.13;7.73;;;11.10;99.90;;;;;;5052524;28;20180;-87
2022/11/16 00:33:55;;;;;;;9.23;7.37;;;11.10;99.90;;;;;;5051708;28;20181;-87
2022/11/16 00:36:20;;;;;;;9.20;7.50;;;11.10;99.90;;;;;;5052073;28;20188;-87
2022/11/16 00:38:50;;;;;;;8.90;6.37;;;11.10;99.90;;;;;;5052695;28;20182;-87
2022/11/16 00:41:15;;;;;;;7.95;6.70;;;11.10;99.90;;;;;;5051728;28;20571;-87
2022/11/16 00:43:41;;;;;;;6.87;5.63;;;11.10;99.90;;;;;;5051543;28;20194;-87
2022/11/16 00:46:08;;;;;;;8.27;6.17;;;11.10;99.90;;;;;;5052023;28;20687;-87
2022/11/16 00:48:33;;;;;;;6.50;5.53;;;11.10;99.90;;;;;;5067885;28;20416;-88
2022/11/16 00:50:59;;;;;;;6.70;5.50;;;11.10;99.90;;;;;;5051590;28;20536;-88
2022/11/16 00:53:24;;;;;;;6.43;5.07;;;11.10;99.90;;;;;;5051833;28;20189;-87
2022/11/16 00:55:50;;;;;;;5.30;4.63;;;11.10;99.90;;;;;;5068063;28;20218;-88
2022/11/16 00:58:16;;;;;;;7.63;5.80;;;11.10;99.90;;;;;;5068272;28;20260;-88
2022/11/16 01:00:42;;;;;;;6.63;5.30;;;11.10;99.90;;;;;;5051249;28;20278;-88
2022/11/16 01:03:08;;;;;;;6.47;5.30;;;11.10;99.90;;;;;;5052442;28;20516;-87
2022/11/16 01:05:34;;;;;;;6.75;5.03;;;11.10;99.90;;;;;;5067402;28;20652;-88
2022/11/16 01:07:59;;;;;;;7.13;4.93;;;11.10;99.90;;;;;;5052262;28;20215;-87
2022/11/16 01:10:26;;;;;;;5.40;4.53;;;11.10;99.90;;;;;;5067929;28;20205;-87
2022/11/16 01:12:53;;;;;;;7.25;5.82;;;11.10;99.90;;;;;;5067911;28;20182;-87
2022/11/16 01:15:21;;;;;;;6.00;5.40;;;11.10;99.90;;;;;;5068044;28;20213;-87
2022/11/16 01:17:47;;;;;;;5.30;4.70;;;11.10;99.90;;;;;;5052550;28;20173;-89
2022/11/16 01:20:16;;;;;;;6.27;5.53;;;11.10;99.90;;;;;;5051547;28;20352;-89
2022/11/16 01:22:42;;;;;;;5.10;4.60;;;11.00;99.90;;;;;;5052405;28;20423;-88
2022/11/16 01:25:09;;;;;;;8.17;5.37;;;11.10;99.90;;;;;;5068159;28;20404;-89
2022/11/16 01:27:38;;;;;;;5.97;5.05;;;11.10;99.90;;;;;;5052309;28;20435;-89
2022/11/16 01:30:06;;;;;;;8.07;5.85;;;11.10;99.90;;;;;;5052504;28;20224;-90
2022/11/16 01:32:32;;;;;;;7.65;5.70;;;11.10;99.90;;;;;;5068703;28;20186;-91
2022/11/16 01:34:57;;;;;;;5.93;5.43;;;11.10;99.90;;;;;;5055186;28;20185;-90
2022/11/16 01:37:23;;;;;;;7.73;6.60;;;11.10;99.90;;;;;;5071685;28;20177;-88
2022/11/16 01:39:49;;;;;;;6.23;5.70;;;11.10;99.90;;;;;;5054675;28;20193;-89
2022/11/16 01:42:25;;;;;;;6.13;5.53;;;11.00;99.90;;;;;;5071421;28;20181;-90
2022/11/16 01:45:04;;;;;;;6.10;5.50;;;11.10;99.90;;;;;;5054744;28;20420;-89
2022/11/16 01:47:30;;;;;;;9.03;6.53;;;11.00;99.90;;;;;;5054595;28;20640;-90
2022/11/16 01:50:08;;;;;;;8.63;6.10;;;11.00;99.90;;;;;;5070701;28;20500;-90
2022/11/16 01:52:37;;;;;;;7.90;5.90;;;11.00;99.90;;;;;;5055655;28;20162;-87
2022/11/16 01:55:03;;;;;;;7.57;6.30;;;11.00;99.90;;;;;;5054849;28;20203;-91
2022/11/16 01:57:36;;;;;;;9.07;7.50;;;11.00;99.90;;;;;;5054337;28;20185;-90
2022/11/16 02:00:05;;;;;;;6.55;5.80;;;11.00;99.90;;;;;;5055879;28;20756;-90
2022/11/16 02:02:31;;;;;;;7.00;5.80;;;10.90;99.90;;;;;;5055108;28;20189;-90
2022/11/16 02:04:58;;;;;;;7.50;6.00;;;10.90;99.90;;;;;;5053948;28;20487;-89
2022/11/16 02:09:52;;;;;;;6.73;6.13;;;10.90;99.90;;;;;;5070773;28;20173;-90
2022/11/16 02:10:43;;;;;;;6.88;5.63;;;10.90;99.90;;;;;;5055034;28;20990;-89
2022/11/16 02:13:46;;;;;;;6.20;5.20;;;10.90;99.90;;;;;;5054214;28;20275;-88
2022/11/16 02:16:23;;;;;;;6.00;4.97;;;10.90;99.90;;;;;;5053535;28;20181;-89
2022/11/16 02:19:00;;;;;;;6.10;4.90;;;10.90;99.90;;;;;;5055030;28;20249;-90
2022/11/16 02:22:08;;;;;;;4.70;4.30;;;11.00;99.90;;;;;;5053709;28;20212;-89
2022/11/16 02:24:46;;;;;;;6.10;4.33;;;11.00;99.90;;;;;;5055139;28;20168;-89
2022/11/16 02:27:43;;;;;;;4.97;3.43;;;11.00;99.90;;;;;;5054655;28;20399;-89
2022/11/16 02:30:08;;;;;;;6.35;3.78;;;11.00;99.90;;;;;;5055043;28;20462;-89
2022/11/16 02:32:53;;;;;;;4.10;3.47;;;11.00;99.90;;;;;;5054920;28;20182;-89
2022/11/16 02:35:27;;;;;;;6.27;3.40;;;10.90;99.90;;;;;;5053219;28;20165;-89
2022/11/16 02:38:01;;;;;;;4.70;3.45;;;10.90;99.90;;;;;;5054546;28;20424;-89
2022/11/16 02:40:30;;;;;;;3.60;3.22;;;11.00;99.90;;;;;;5054593;28;20166;-89
2022/11/16 02:43:08;;;;;;;3.55;3.20;;;10.90;99.90;;;;;;5054668;28;20189;-90
2022/11/16 02:45:42;;;;;;;3.93;3.13;;;10.90;99.90;;;;;;5069746;28;20196;-90
2022/11/16 02:48:15;;;;;;;8.13;3.30;;;10.90;99.90;;;;;;5054747;28;20479;-89
2022/11/16 02:50:42;;;;;;;3.20;2.90;;;10.90;99.90;;;;;;5054669;28;20455;-89
2022/11/16 02:53:08;;;;;;;3.70;3.30;;;10.90;99.90;;;;;;5053479;28;20489;-89
2022/11/16 02:55:35;;;;;;;2.70;2.50;;;10.90;99.90;;;;;;5054536;28;20404;-89
2022/11/16 02:58:04;;;;;;;2.47;2.28;;;10.90;99.90;;;;;;5053024;28;20189;-90
2022/11/16 03:00:36;;;;;;;2.40;2.20;;;10.90;99.90;;;;;;5054472;28;20216;-91
2022/11/16 03:03:20;;;;;;;3.33;2.55;;;10.90;99.90;;;;;;5054320;28;20173;-89
2022/11/16 03:05:58;;;;;;;4.28;2.00;;;10.90;99.90;;;;;;5054478;28;20226;-89
2022/11/16 03:08:41;;;;;;;2.78;2.22;;;10.90;99.90;;;;;;5052733;28;20695;-91
2022/11/16 03:13:58;;;;;;;2.20;2.00;;;10.90;99.90;;;;;;5054037;28;20165;-90
2022/11/16 03:16:39;;;;;;;3.15;2.50;;;10.90;99.90;;;;;;5054194;28;20384;-90
2022/11/16 03:19:09;;;;;;;2.77;2.57;;;10.90;99.90;;;;;;5054236;28;20248;-90
2022/11/16 03:21:58;;;;;;;3.53;2.53;;;10.90;99.90;;;;;;5053959;28;20408;-90
2022/11/16 03:24:24;;;;;;;2.88;2.60;;;10.90;99.90;;;;;;5052701;28;20408;-90
2022/11/16 03:26:56;;;;;;;3.73;3.43;;;10.80;99.90;;;;;;5069071;28;20604;-89
2022/11/16 03:29:29;;;;;;;3.43;3.13;;;10.80;99.90;;;;;;5053750;28;20495;-89
2022/11/16 03:32:04;;;;;;;4.18;3.45;;;10.80;99.90;;;;;;5053691;28;20487;-89
2022/11/16 03:34:34;;;;;;;5.13;3.30;;;10.80;99.90;;;;;;5052761;28;20177;-90
2022/11/16 03:37:01;;;;;;;3.63;3.27;;;10.80;99.90;;;;;;5053264;28;20410;-89
2022/11/16 03:39:38;;;;;;;2.97;2.72;;;10.80;99.90;;;;;;5052558;28;20435;-90
2022/11/16 03:42:10;;;;;;;3.00;2.40;;;10.90;99.90;;;;;;5053692;28;20231;-90
2022/11/16 03:44:37;;;;;;;4.10;3.20;;;10.90;99.90;;;;;;5053833;28;20162;-90
2022/11/16 03:47:03;;;;;;;3.57;3.23;;;11.00;99.90;;;;;;5053249;28;20412;-89
2022/11/16 03:49:30;;;;;;;4.27;3.10;;;11.00;99.90;;;;;;5068990;28;20474;-90
2022/11/16 03:51:57;;;;;;;2.88;2.58;;;10.90;99.90;;;;;;5051847;28;20185;-90
2022/11/16 03:54:22;;;;;;;4.70;3.00;;;10.90;99.90;;;;;;5053717;28;20693;-90
2022/11/16 03:56:48;;;;;;;2.83;2.50;;;10.80;99.90;;;;;;5052958;28;20509;-90
2022/11/16 03:59:14;;;;;;;3.13;2.73;;;10.80;99.90;;;;;;5052273;28;20181;-90
2022/11/16 04:01:39;;;;;;;2.87;2.47;;;10.80;99.90;;;;;;5068941;28;20713;-91
2022/11/16 04:04:05;;;;;;;2.63;1.90;;;10.80;99.90;;;;;;5055521;28;20439;-90
2022/11/16 04:25:56;;;;;;;3.42;1.73;;;10.80;99.90;;;;;;5077756;28;20176;-89
2022/11/16 04:28:28;;;;;;;1.88;1.40;;;10.70;99.90;;;;;;5072712;28;20184;-89
2022/11/16 04:39:11;;;;;;;2.20;1.73;;;10.60;99.90;;;;;;5077605;28;20925;-87
2022/11/16 04:44:20;;;;;;;2.78;2.25;;;10.70;99.90;;;;;;5075741;28;20656;-87
2022/11/16 04:49:30;;;;;;;2.67;1.77;;;10.70;99.90;;;;;;5074655;28;20293;-88
2022/11/16 04:51:56;;;;;;;3.00;1.93;;;10.70;99.90;;;;;;5055123;28;20431;-88
2022/11/16 04:54:22;;;;;;;4.00;1.83;;;10.70;99.90;;;;;;5071849;28;20223;-87
2022/11/16 04:56:47;;;;;;;2.17;1.97;;;10.70;99.90;;;;;;5054738;28;20189;-87
2022/11/16 04:59:13;;;;;;;4.70;1.63;;;10.60;99.90;;;;;;5073223;28;20184;-87
2022/11/16 05:04:23;;;;;;;2.00;1.80;;;10.60;99.90;;;;;;5072738;28;20222;-88
2022/11/16 05:06:48;;;;;;;2.30;1.47;;;10.60;99.90;;;;;;5072236;28;20403;-88
2022/11/16 05:09:14;;;;;;;2.90;1.83;;;10.60;99.90;;;;;;5075047;28;20232;-88
2022/11/16 05:11:40;;;;;;;3.37;1.57;;;10.60;99.90;;;;;;5077757;28;20181;-87
2022/11/16 05:14:07;;;;;;;1.73;1.20;;;10.60;99.90;;;;;;5076674;28;20427;-88
2022/11/16 05:16:32;;;;;;;1.63;1.48;;;10.60;99.90;;;;;;5077830;28;20169;-89
2022/11/16 05:21:42;;;;;;;1.60;1.50;;;10.50;99.90;;;;;;5076720;28;20176;-88
2022/11/16 05:26:52;;;;;;;1.88;1.40;;;10.40;99.90;;;;;;5077350;28;20176;-89
2022/11/16 05:29:18;;;;;;;1.23;1.10;;;10.30;99.90;;;;;;5079698;28;20617;-89
2022/11/16 05:31:43;;;;;;;2.90;1.00;;;10.20;99.90;;;;;;5067118;28;20192;-89
2022/11/16 05:34:09;;;;;;;2.17;1.40;;;10.10;99.90;;;;;;5084504;28;20173;-87
2022/11/16 05:36:35;;;;;;;1.30;1.10;;;10.00;99.90;;;;;;5082778;28;20185;-89
2022/11/16 05:39:01;;;;;;;2.33;1.63;;;10.00;99.90;;;;;;5076778;28;20419;-87
2022/11/16 05:41:26;;;;;;;3.10;1.20;;;9.90;99.90;;;;;;5077476;28;20188;-87
2022/11/16 05:43:54;;;;;;;1.77;1.20;;;9.80;99.90;;;;;;5077584;28;20702;-87
2022/11/16 05:46:20;;;;;;;3.47;1.27;;;9.80;99.90;;;;;;5077748;28;20173;-86
2022/11/16 05:48:45;;;;;;;2.73;1.27;;;9.70;99.90;;;;;;5077597;28;20184;-86
2022/11/16 05:51:11;;;;;;;1.87;1.00;;;9.70;99.90;;;;;;5075691;28;20541;-87
2022/11/16 05:53:36;;;;;;;2.60;1.30;;;9.60;99.90;;;;;;5076448;28;20264;-86
2022/11/16 05:56:02;;;;;;;1.37;1.27;;;9.60;99.90;;;;;;5076148;28;20628;-86
2022/11/16 05:58:28;;;;;;;2.23;1.40;;;9.50;99.90;;;;;;5076902;28;20176;-86
2022/11/16 06:00:53;;;;;;;3.30;1.43;;;9.50;99.90;;;;;;5075687;28;20185;-86
2022/11/16 06:03:19;;;;;;;2.50;1.80;;;9.40;99.90;;;;;;5076835;28;20203;-87
2022/11/16 06:05:44;;;;;;;3.33;1.30;;;9.30;99.90;;;;;;5077685;28;20222;-86
2022/11/16 06:08:10;;;;;;;2.13;1.43;;;9.30;99.90;;;;;;5075715;28;20242;-86
2022/11/16 06:10:36;;;;;;;3.57;1.37;;;9.30;99.90;;;;;;5078363;28;20279;-87
2022/11/16 06:13:01;;;;;;;5.00;1.73;;;9.20;99.90;;;;;;5076495;28;20185;-87
2022/11/16 06:15:27;;;;;;;4.77;2.40;;;9.20;99.90;;;;;;5059887;28;20183;-87
2022/11/16 06:17:53;;;;;;;3.97;1.70;;;9.10;99.90;;;;;;5077203;28;20241;-87
2022/11/16 06:20:19;;;;;;;8.53;2.97;;;9.10;99.90;;;;;;5058375;28;20529;-87
2022/11/16 06:22:44;;;;;;;4.23;1.70;;;9.10;99.90;;;;;;5076291;28;20833;-87
2022/11/16 06:25:10;;;;;;;3.30;1.40;;;9.10;99.90;;;;;;5075504;28;20505;-88
2022/11/16 06:27:38;;;;;;;3.67;2.17;;;9.00;99.90;;;;;;5058934;28;20195;-88
2022/11/16 06:30:05;;;;;;;6.60;2.53;;;9.00;99.90;;;;;;5074838;28;20215;-86
2022/11/16 06:32:31;;;;;;;7.38;2.10;;;8.90;99.90;;;;;;5075687;28;20275;-87
2022/11/16 06:34:56;;;;;;;3.10;2.23;;;8.90;99.90;;;;;;5074989;28;20646;-88
2022/11/16 06:37:22;;;;;;;3.83;1.23;;;8.80;99.90;;;;;;5075516;28;20651;-88
2022/11/16 06:39:47;;;;;;;5.87;1.57;;;8.80;99.90;;;;;;5075856;28;20193;-88
2022/11/16 06:42:13;;;;;;;5.93;1.80;;;8.70;99.90;;;;;;5057942;28;20216;-88
2022/11/16 06:44:39;;;;;;;4.53;1.63;;;8.70;99.90;;;;;;5074621;28;20181;-88
2022/11/16 06:47:04;;;;;;;7.93;1.50;;;8.70;99.90;;;;;;5074112;28;20208;-89
2022/11/16 06:49:30;;;;;;;2.43;1.50;;;8.70;99.90;;;;;;5057192;28;20262;-88
2022/11/16 06:51:55;;;;;;;2.13;1.20;;;8.70;99.90;;;;;;5074259;28;20204;-90
2022/11/16 06:54:21;;;;;;;7.77;2.10;;;8.60;99.90;;;;;;5075784;28;20269;-89
2022/11/16 06:56:47;;;;;;;6.30;1.40;;;8.50;99.90;;;;;;5076991;28;20226;-89
2022/11/16 06:59:12;;;;;;;4.30;1.77;;;8.50;99.90;;;;;;5059026;28;20431;-89
2022/11/16 07:01:38;;;;;;;8.57;2.17;;;8.50;99.90;;;;;;5075680;28;20208;-88
2022/11/16 07:04:04;;;;;;;4.00;1.73;;;8.40;99.90;;;;;;5074013;28;20184;-83
2022/11/16 07:06:29;;;;;;;4.03;1.70;;;8.40;99.90;;;;;;5074656;28;20245;-83
2022/11/16 07:08:55;;;;;;;6.13;2.43;;;8.50;99.90;;;;;;5056313;28;20601;-84
2022/11/16 07:11:20;;;;;;;3.73;1.83;;;8.40;99.90;;;;;;5056763;28;20213;-83
2022/11/16 07:13:48;;;;;;;3.07;1.63;;;8.40;99.90;;;;;;5073306;28;20644;-83
2022/11/16 07:16:13;;;;;;;5.38;1.42;;;8.30;99.90;;;;;;5072782;28;20544;-83
2022/11/16 07:18:40;;;;;;;4.23;1.80;;;8.30;99.90;;;;;;5073341;28;20181;-85
2022/11/16 07:21:07;;;;;;;2.33;1.50;;;8.20;99.90;;;;;;5073871;28;20794;-85
2022/11/16 07:23:33;;;;;;;16.85;2.55;;;8.10;99.90;;;;;;5072969;28;20181;-84
2022/11/16 07:26:00;;;;;;;7.30;4.03;;;8.10;99.90;;;;;;5073919;28;20181;-84
2022/11/16 07:28:28;;;;;;;12.55;4.30;;;8.20;99.90;;;;;;5056198;28;20439;-85
2022/11/16 07:30:53;;;;;;;7.55;3.33;;;8.10;99.90;;;;;;5071630;28;20205;-85
2022/11/16 07:33:19;;;;;;;7.30;2.50;;;8.20;99.90;;;;;;5056317;28;20234;-85
2022/11/16 07:35:45;;;;;;;5.80;2.17;;;8.10;99.90;;;;;;5072847;28;20181;-85
2022/11/16 07:38:10;;;;;;;3.57;1.87;;;8.10;99.90;;;;;;5073987;28;20185;-84
2022/11/16 07:40:36;;;;;;;5.40;2.40;;;8.00;99.90;;;;;;5053595;28;20235;-84
2022/11/16 07:43:01;;;;;;;7.40;3.10;;;8.00;99.90;;;;;;5052754;28;20180;-85
2022/11/16 07:45:28;;;;;;;9.03;2.50;;;7.90;99.90;;;;;;5053217;28;20231;-83
2022/11/16 07:47:53;;;;;;;9.45;2.70;;;7.90;99.90;;;;;;5064580;28;20283;-84
2022/11/16 07:50:19;;;;;;;5.53;2.43;;;7.90;99.90;;;;;;5074111;28;20209;-84
2022/11/16 07:52:45;;;;;;;4.90;2.67;;;7.90;99.90;;;;;;5056482;28;20538;-84
2022/11/16 07:55:12;;;;;;;4.95;2.33;;;7.90;99.90;;;;;;5057027;28;20280;-83
2022/11/16 07:57:37;;;;;;;6.00;1.85;;;7.90;99.90;;;;;;5074841;28;20184;-84
2022/11/16 08:00:04;;;;;;;5.67;2.80;;;7.90;99.90;;;;;;5072377;28;20219;-84
2022/11/16 08:02:30;;;;;;;4.68;2.10;;;7.90;99.90;;;;;;5072264;28;20237;-84
2022/11/16 08:04:56;;;;;;;12.50;2.60;;;7.90;99.90;;;;;;5073944;28;20181;-86
2022/11/16 08:07:21;;;;;;;3.10;2.00;;;8.00;99.90;;;;;;5072638;28;20494;-84
2022/11/16 08:09:48;;;;;;;5.57;1.97;;;8.00;99.90;;;;;;5072772;28;20236;-84
2022/11/16 08:12:15;;;;;;;8.80;2.05;;;8.00;99.90;;;;;;5072076;28;20200;-84
2022/11/16 08:14:40;;;;;;;3.30;1.85;;;8.10;99.90;;;;;;5071943;28;20275;-84
2022/11/16 08:17:07;;;;;;;3.60;1.70;;;8.10;99.90;;;;;;5072688;28;20200;-83
2022/11/16 08:19:33;;;;;;;5.35;1.70;;;8.10;99.90;;;;;;5072270;28;20234;-83
2022/11/16 08:21:58;;;;;;;5.00;2.10;;;8.10;99.90;;;;;;5073243;28;20177;-84
2022/11/16 08:24:24;;;;;;;7.13;2.13;;;8.10;99.90;;;;;;5052173;28;20517;-84
2022/11/16 08:26:50;;;;;;;5.30;2.17;;;8.10;99.90;;;;;;5044982;28;20178;-83
2022/11/16 08:29:15;;;;;;;6.20;2.77;;;8.10;99.90;;;;;;5071780;28;20208;-84
2022/11/16 08:31:43;;;;;;;5.90;2.37;;;8.10;99.90;;;;;;5072267;28;20458;-84
2022/11/16 08:34:09;;;;;;;6.63;2.17;;;8.10;99.90;;;;;;5073562;28;20173;-84
2022/11/16 08:36:34;;;;;;;6.00;2.20;;;8.10;99.90;;;;;;5056351;28;20647;-83
2022/11/16 08:39:00;;;;;;;7.17;1.90;;;8.10;99.90;;;;;;5072589;28;20189;-85
2022/11/16 08:41:26;;;;;;;6.63;2.33;;;8.20;99.90;;;;;;5072290;28;20220;-85
2022/11/16 08:43:53;;;;;;;13.53;2.30;;;8.30;99.90;;;;;;5076017;28;20557;-84
2022/11/16 08:46:19;;;;;;;7.88;3.03;;;8.40;99.90;;;;;;5059017;28;20462;-85
2022/11/16 08:48:45;;;;;;;8.48;1.80;;;8.50;99.90;;;;;;5075693;28;20227;-84
2022/11/16 08:51:16;;;;;;;2.77;2.00;;;8.60;99.90;;;;;;5076340;28;20208;-84
2022/11/16 08:53:42;;;;;;;6.35;2.20;;;8.70;99.90;;;;;;5076867;28;20454;-83
2022/11/16 08:56:12;;;;;;;5.13;1.80;;;8.70;99.90;;;;;;5076061;28;20648;-83
2022/11/16 08:58:38;;;;;;;3.30;2.20;;;8.80;99.90;;;;;;5056517;28;20791;-83
2022/11/16 09:01:18;;;;;;;6.60;1.63;;;8.90;99.90;;;;;;5058549;28;20196;-83
2022/11/16 09:03:44;;;;;;;3.40;2.28;;;9.10;99.90;;;;;;5076685;28;20506;-84
2022/11/16 09:06:10;;;;;;;3.27;1.90;;;9.10;99.90;;;;;;5076300;28;20177;-84
2022/11/16 09:08:37;;;;;;;12.40;2.50;;;9.20;99.90;;;;;;5077446;28;20474;-83
2022/11/16 09:11:09;;;;;;;5.15;2.45;;;9.30;99.90;;;;;;5075778;28;20236;-83
2022/11/16 09:13:34;;;;;;;9.13;2.83;;;9.40;99.90;;;;;;5077677;28;20189;-84
2022/11/16 09:16:01;;;;;;;11.80;3.23;;;9.50;99.90;;;;;;5075260;28;20529;-86
2022/11/16 09:18:27;;;;;;;6.88;1.70;;;9.60;99.90;;;;;;5076409;28;20708;-84
2022/11/16 09:20:53;;;;;;;6.72;2.30;;;9.70;99.90;;;;;;5076252;28;20191;-83
2022/11/16 09:23:19;;;;;;;10.07;2.27;;;9.80;99.90;;;;;;5080221;28;20672;-83
2022/11/16 09:25:47;;;;;;;6.60;2.20;;;9.80;99.90;;;;;;5075386;28;20425;-83
2022/11/16 09:28:14;;;;;;;10.77;2.10;;;9.90;99.90;;;;;;5058672;28;20181;-83
2022/11/16 09:30:40;;;;;;;6.50;2.05;;;10.00;99.90;;;;;;5058949;28;20237;-83
2022/11/16 09:33:06;;;;;;;6.75;1.55;;;10.20;99.90;;;;;;5075401;28;20173;-83
2022/11/16 09:35:33;;;;;;;4.50;2.20;;;10.40;99.90;;;;;;5077152;28;20242;-83
2022/11/16 09:37:58;;;;;;;4.93;1.50;;;10.50;99.90;;;;;;5075780;28;20176;-84
2022/11/16 09:40:39;;;;;;;10.67;2.03;;;10.70;99.90;;;;;;5075382;28;20679;-84
2022/11/16 09:43:25;;;;;;;14.57;2.00;;;10.90;99.90;;;;;;5075604;28;20172;-83
2022/11/16 09:45:54;;;;;;;6.23;1.53;;;10.90;99.90;;;;;;5075270;28;20431;-84
2022/11/16 09:48:21;;;;;;;3.40;1.33;;;11.20;99.90;;;;;;5078314;28;20441;-84
2022/11/16 09:50:56;;;;;;;7.37;1.70;;;11.30;99.90;;;;;;5059178;28;20498;-84
2022/11/16 09:53:59;;;;;;;4.67;1.87;;;11.50;99.90;;;;;;5075902;28;20510;-84
2022/11/16 09:56:27;;;;;;;6.77;1.70;;;11.60;99.90;;;;;;5064155;28;20457;-84
2022/11/16 09:59:01;;;;;;;5.80;1.83;;;11.70;99.90;;;;;;5075213;28;20445;-84
2022/11/16 10:01:36;;;;;;;5.43;1.70;;;11.90;99.90;;;;;;5074959;28;20414;-84
2022/11/16 10:04:40;;;;;;;5.13;1.67;;;11.90;99.90;;;;;;5077535;28;20763;-84
2022/11/16 10:07:14;;;;;;;4.93;1.60;;;12.00;99.90;;;;;;5063665;28;20775;-84
2022/11/16 10:09:42;;;;;;;4.33;1.63;;;12.20;99.90;;;;;;5074201;28;20493;-84
2022/11/16 10:12:42;;;;;;;6.27;1.30;;;12.20;99.90;;;;;;5074755;28;20403;-84
2022/11/16 10:15:33;;;;;;;5.00;1.60;;;12.30;99.90;;;;;;5076526;28;20415;-84
2022/11/16 10:18:31;;;;;;;6.20;1.47;;;12.50;99.90;;;;;;5076092;28;20410;-84
2022/11/16 10:21:39;;;;;;;6.03;1.60;;;12.70;99.90;;;;;;5067902;28;20474;-84
2022/11/16 10:24:23;;;;;;;6.60;1.63;;;12.70;99.90;;;;;;5065877;28;20774;-85
2022/11/16 10:27:13;;;;;;;3.67;1.27;;;12.70;99.90;;;;;;5074735;28;20533;-85
2022/11/16 10:30:06;;;;;;;4.00;1.50;;;12.80;99.90;;;;;;5075344;28;20508;-84
2022/11/16 10:32:48;;;;;;;4.90;1.60;;;13.10;99.90;;;;;;5075643;28;20728;-84
2022/11/16 10:35:23;;;;;;;7.47;2.00;;;13.40;99.90;;;;;;5075458;28;20919;-84
2022/11/16 10:37:50;;;;;;;4.73;1.53;;;13.50;99.90;;;;;;5075424;28;20452;-84
2022/11/16 10:40:19;;;;;;;4.83;1.27;;;13.70;99.90;;;;;;5073876;28;20403;-84
2022/11/16 10:42:56;;;;;;;4.43;1.33;;;13.70;99.90;;;;;;5074009;28;20510;-83
2022/11/16 10:45:30;;;;;;;2.43;1.37;;;13.80;99.90;;;;;;5073842;28;20414;-84
2022/11/16 10:48:41;;;;;;;5.87;1.83;;;14.10;99.90;;;;;;5075477;28;20452;-85
2022/11/16 10:51:08;;;;;;;4.43;1.47;;;14.50;99.90;;;;;;5032454;28;20479;-87
2022/11/16 10:53:35;;;;;;;5.63;1.77;;;14.90;99.90;;;;;;5066080;28;20540;-85
2022/11/16 10:56:21;;;;;;;7.87;2.10;;;15.00;99.90;;;;;;5074075;28;20488;-85
2022/11/16 10:58:57;;;;;;;5.43;1.50;;;14.90;99.90;;;;;;5073845;28;20402;-86
2022/11/16 11:01:29;;;;;;;3.33;1.30;;;15.20;99.90;;;;;;5073424;28;20397;-86
2022/11/16 11:03:55;;;;;;;4.70;1.70;;;15.40;99.90;;;;;;5074576;28;20484;-86
2022/11/16 11:06:25;;;;;;;7.40;1.93;;;16.00;99.90;;;;;;5072571;28;20544;-86
2022/11/16 11:08:50;;;;;;;3.33;1.13;;;16.50;99.90;;;;;;5072369;28;20228;-87
2022/11/16 11:14:13;;;;;;;7.80;1.70;;;16.80;99.90;;;;;;5074540;28;20168;-86
2022/11/16 11:16:40;;;;;;;10.53;2.10;;;16.90;99.90;;;;;;5074444;28;20540;-86
2022/11/16 11:19:25;;;;;;;5.00;1.60;;;17.50;99.90;;;;;;5073068;28;20420;-86
2022/11/16 11:21:56;;;;;;;5.27;1.50;;;17.60;99.90;;;;;;5073276;28;20443;-87
2022/11/16 11:24:22;;;;;;;3.77;1.47;;;17.60;99.90;;;;;;5072913;28;20495;-86
2022/11/16 11:26:56;;;;;;;4.67;1.10;;;18.00;99.90;;;;;;5073298;28;20457;-86
2022/11/16 11:29:29;;;;;;;2.83;1.20;;;18.30;99.90;;;;;;5074349;28;20617;-87
2022/11/16 11:32:13;;;;;;;4.80;1.07;;;18.20;99.90;;;;;;5072882;28;20527;-86
2022/11/16 11:34:43;;;;;;;4.87;1.30;;;18.30;99.90;;;;;;5072996;28;20390;-86
2022/11/16 11:37:15;;;;;;;8.00;1.50;;;17.90;99.90;;;;;;5072172;28;20393;-86
2022/11/16 11:39:41;;;;;;;4.20;1.10;;;18.10;99.90;;;;;;5074670;28;20398;-86
2022/11/16 11:42:13;;;;;;;2.73;1.07;;;18.30;99.90;;;;;;5073927;28;20418;-86
2022/11/16 11:44:50;;;;;;;4.70;1.40;;;18.60;99.90;;;;;;5073716;28;20183;-86
2022/11/16 11:47:34;;;;;;;3.13;1.20;;;18.70;99.90;;;;;;5073723;28;20398;-86
2022/11/16 11:50:23;;;;;;;2.60;1.37;;;18.50;99.90;;;;;;5072820;28;20537;-86
2022/11/16 11:53:17;;;;;;;9.37;1.37;;;18.30;99.90;;;;;;5074209;28;20831;-85
2022/11/16 11:55:42;;;;;;;3.53;1.33;;;17.90;99.90;;;;;;5074104;28;20403;-85
2022/11/16 11:58:14;;;;;;;2.30;1.10;;;17.90;99.90;;;;;;5052969;28;20393;-87
2022/11/16 12:01:04;;;;;;;3.83;1.00;;;17.80;99.90;;;;;;5068892;28;20173;-87
2022/11/16 12:04:07;;;;;;;1.90;0.93;;;17.50;99.90;;;;;;5068476;28;20456;-85
2022/11/16 12:06:37;;;;;;;3.90;1.30;;;17.30;99.90;;;;;;5074211;28;20410;-85
2022/11/16 12:09:21;;;;;;;4.30;1.40;;;16.90;99.90;;;;;;5073171;28;20965;-86
2022/11/16 12:12:08;;;;;;;2.90;1.63;;;17.10;99.90;;;;;;5074017;28;20737;-85
2022/11/16 12:14:45;;;;;;;4.00;1.90;;;16.80;99.90;;;;;;5072330;28;20422;-86
2022/11/16 12:17:48;;;;;;;1.80;0.90;;;16.60;99.90;;;;;;5071715;28;20494;-87
2022/11/16 12:20:39;;;;;;;9.77;2.00;;;16.50;99.90;;;;;;5052261;28;20429;-85
2022/11/16 12:23:38;;;;;;;4.10;1.40;;;16.30;99.90;;;;;;5052401;28;20439;-85
2022/11/16 12:26:19;;;;;;;2.03;1.20;;;16.20;99.90;;;;;;5052651;28;20489;-84
2022/11/16 12:29:02;;;;;;;2.50;1.00;;;16.10;99.90;;;;;;5052610;28;20768;-84
2022/11/16 12:32:05;;;;;;;3.33;0.83;;;15.90;99.90;;;;;;5053564;28;20460;-84
2022/11/16 12:34:42;;;;;;;2.87;0.93;;;15.80;99.90;;;;;;5053495;28;20399;-84
2022/11/16 12:37:20;;;;;;;9.00;1.10;;;15.80;99.90;;;;;;5052486;28;20395;-84
2022/11/16 12:40:27;;;;;;;3.93;1.00;;;15.70;99.90;;;;;;5052332;28;20952;-84
2022/11/16 12:43:11;;;;;;;2.10;0.90;;;15.50;99.90;;;;;;5052036;28;20431;-86
2022/11/16 12:46:00;;;;;;;6.40;1.23;;;15.70;99.90;;;;;;5053312;28;20385;-85
2022/11/16 12:48:56;;;;;;;4.57;1.43;;;15.80;99.90;;;;;;5053169;28;20412;-85
2022/11/16 12:51:36;;;;;;;2.90;1.10;;;15.90;99.90;;;;;;5052802;28;20459;-84
2022/11/16 12:54:40;;;;;;;6.77;1.63;;;15.90;99.90;;;;;;5052116;28;20423;-84
2022/11/16 12:57:30;;;;;;;2.30;0.87;;;16.00;99.90;;;;;;5052400;28;21018;-84
2022/11/16 13:00:10;;;;;;;3.47;1.27;;;16.20;99.90;;;;;;5053491;28;20533;-84
2022/11/16 13:02:56;;;;;;;3.13;1.20;;;16.20;99.90;;;;;;5053119;28;20771;-84
2022/11/16 13:05:30;;;;;;;3.17;1.27;;;16.40;99.90;;;;;;5052577;28;20931;-84
2022/11/16 13:08:10;;;;;;;2.13;0.90;;;16.30;99.90;;;;;;5051892;28;20560;-83
2022/11/16 13:10:41;;;;;;;2.60;1.10;;;16.40;99.90;;;;;;5053136;28;20459;-83
2022/11/16 13:13:16;;;;;;;2.70;0.80;;;16.40;99.90;;;;;;5051973;28;20430;-84
2022/11/16 13:15:45;;;;;;;2.73;1.10;;;16.30;99.90;;;;;;5053319;28;20465;-84
2022/11/16 13:18:15;;;;;;;2.80;1.10;;;16.50;99.90;;;;;;5052270;28;20438;-85
2022/11/16 13:20:50;;;;;;;2.30;0.90;;;16.70;99.90;;;;;;5052132;28;20478;-83
2022/11/16 13:23:54;;;;;;;1.57;0.83;;;16.90;99.90;;;;;;5051624;28;20444;-84
2022/11/16 13:26:37;;;;;;;3.50;1.17;;;16.80;99.90;;;;;;5050242;28;20435;-84
2022/11/16 13:29:44;;;;;;;2.53;0.90;;;16.60;99.90;;;;;;5034682;28;20455;-84
2022/11/16 13:32:10;;;;;;;4.67;1.00;;;16.40;99.90;;;;;;5016857;28;20417;-83
2022/11/16 13:34:38;;;;;;;4.23;1.17;;;16.20;99.90;;;;;;5055418;28;20509;-83
2022/11/16 13:37:35;;;;;;;4.10;1.20;;;16.00;99.90;;;;;;5055508;28;20554;-83
2022/11/16 13:40:00;;;;;;;1.93;1.00;;;15.90;99.90;;;;;;5055683;28;20485;-83
2022/11/16 13:42:28;;;;;;;5.47;1.00;;;15.70;99.90;;;;;;5054974;28;20797;-84
2022/11/16 13:45:05;;;;;;;4.23;0.97;;;15.60;99.90;;;;;;5055390;28;20193;-84
2022/11/16 13:47:31;;;;;;;2.50;0.90;;;15.50;99.90;;;;;;5054785;28;20405;-83
2022/11/16 13:50:01;;;;;;;1.73;0.90;;;15.30;99.90;;;;;;5056240;28;20463;-85
2022/11/16 13:52:48;;;;;;;4.00;1.20;;;15.20;99.90;;;;;;5054766;28;20511;-83
2022/11/16 13:55:47;;;;;;;1.33;0.83;;;15.00;99.90;;;;;;5055320;28;20906;-83
2022/11/16 13:58:21;;;;;;;3.90;1.00;;;14.80;99.90;;;;;;5055272;28;20454;-84
2022/11/16 14:01:09;;;;;;;5.30;1.10;;;14.80;99.90;;;;;;5056567;28;20420;-83
2022/11/16 14:03:42;;;;;;;4.87;1.13;;;14.90;99.90;;;;;;5054635;28;20434;-83